Airports

 

 

Airport Name Latest METAR Visual Conditions
Atlanta International (ATL) KATL 230352Z 10012KT 1/2SM R09R/P6000FT -DZ BR OVC003 11/09 A3023 RMK AO2 SFC VIS 3 SLP236 TWRINC P0000 T01060094 LIFR
Asheville Regional (AVL) KAVL 230354Z AUTO 18004KT 10SM OVC011 08/07 A3031 RMK AO2 SLP261 T00830072 MVFR
Birmingham International (BHM) KBHM 230353Z 05004KT 8SM -RA BKN007 OVC023 13/12 A3014 RMK AO2 RAB37 SLP204 P0000 T01330122 IFR
Charlotte International (CLT) KCLT 230352Z 06009KT 5SM BR BKN004 BKN009 OVC015 08/07 A3035 RMK AO2 PRESFR SLP277 T00780067 LIFR
Greensboro Piedmont-Triad (GSO) KGSO 230354Z 04007KT 7SM -RA OVC005 06/06 A3038 RMK AO2 CIG 004V010 SLP289 P0001 T00610056 IFR
Greenville-Spartanburg International (GSP) KGSP 230353Z 04009KT 10SM OVC007 09/07 A3033 RMK AO2 SLP269 T00890072 IFR
Middle Georgia Regional Airport (MCN) KMCN 230353Z AUTO 06008KT 10SM OVC007 14/12 A3022 RMK AO2 SLP230 T01390122 IFR
Tri-Cities Airport (TRI) KTRI 230353Z 04003KT 10SM FEW045 OVC060 09/09 A3025 RMK AO2 SLP233 T00940094 VFR
Knoxville Regional (TYS) KTYS 230353Z 02004KT 10SM FEW006 OVC028 11/09 A3020 RMK AO2 SLP226 T01060094 MVFR